createdAt,value
2019-01-19T00:01:21.868Z,6.90
2019-01-19T00:05:35.299Z,6.47
2019-01-19T00:09:08.217Z,6.43
2019-01-19T00:12:35.004Z,8.67
2019-01-19T00:15:57.533Z,4.77
2019-01-19T00:19:39.223Z,6.83
2019-01-19T00:22:57.643Z,9.17
2019-01-19T00:26:47.278Z,10.53
2019-01-19T00:30:16.136Z,4.73
2019-01-19T00:34:03.004Z,4.87
2019-01-19T00:37:29.957Z,6.97
2019-01-19T00:41:17.150Z,7.27
2019-01-19T00:45:27.344Z,9.80
2019-01-19T00:49:05.929Z,8.13
2019-01-19T00:52:47.573Z,11.33
2019-01-19T00:56:50.655Z,21.43
2019-01-19T00:59:59.961Z,29.27
2019-01-19T01:03:25.183Z,16.53
2019-01-19T01:06:59.685Z,19.37
2019-01-19T01:10:22.775Z,15.10
2019-01-19T01:14:04.924Z,16.67
2019-01-19T01:18:03.158Z,10.03
2019-01-19T01:22:04.446Z,15.83
2019-01-19T01:26:14.703Z,11.70
2019-01-19T01:29:40.505Z,10.00
2019-01-19T01:33:29.621Z,15.20
2019-01-19T01:37:09.060Z,14.60
2019-01-19T01:40:57.995Z,9.83
2019-01-19T01:44:46.450Z,19.33
2019-01-19T01:48:33.635Z,17.17
2019-01-19T01:51:56.834Z,13.23
2019-01-19T01:55:27.406Z,11.60
2019-01-19T01:59:02.720Z,17.03
2019-01-19T02:02:33.625Z,11.17
2019-01-19T02:06:02.528Z,9.10
2019-01-19T02:09:57.829Z,11.87
2019-01-19T02:13:41.071Z,11.77
2019-01-19T02:17:07.072Z,7.27
2019-01-19T02:20:49.142Z,11.90
2019-01-19T02:24:33.203Z,9.23
2019-01-19T02:27:54.524Z,9.13
2019-01-19T02:31:45.412Z,8.57
2019-01-19T02:35:48.626Z,7.90
2019-01-19T02:39:49.393Z,11.37
2019-01-19T02:43:35.027Z,8.47
2019-01-19T02:47:24.251Z,8.00
2019-01-19T02:51:00.122Z,7.63
2019-01-19T02:54:20.186Z,9.60
2019-01-19T02:58:15.101Z,9.53
2019-01-19T03:02:08.520Z,7.13
2019-01-19T03:05:28.156Z,8.37
2019-01-19T03:09:17.399Z,8.23
2019-01-19T03:12:43.481Z,7.83
2019-01-19T03:16:14.383Z,9.43
2019-01-19T03:19:43.671Z,7.57
2019-01-19T03:23:14.671Z,9.30
2019-01-19T03:26:37.931Z,10.27
2019-01-19T03:29:53.421Z,9.63
2019-01-19T03:33:31.254Z,8.33
2019-01-19T03:37:03.678Z,8.67
2019-01-19T03:40:41.531Z,8.93
2019-01-19T03:44:26.817Z,6.13
2019-01-19T03:47:59.978Z,7.37
2019-01-19T03:51:46.809Z,6.70
2019-01-19T03:55:09.471Z,7.50
2019-01-19T03:58:27.122Z,7.73
2019-01-19T04:01:52.840Z,9.10
2019-01-19T04:05:20.879Z,7.80
2019-01-19T04:08:59.191Z,9.63
2019-01-19T04:12:54.129Z,7.27
2019-01-19T04:16:40.345Z,8.17
2019-01-19T04:20:21.537Z,7.67
2019-01-19T04:23:26.608Z,6.27
2019-01-19T04:26:36.191Z,10.37
2019-01-19T04:29:41.388Z,6.40
2019-01-19T04:32:47.613Z,8.13
2019-01-19T04:35:52.721Z,6.47
2019-01-19T04:38:58.002Z,5.13
2019-01-19T04:42:03.983Z,4.37
2019-01-19T04:45:09.109Z,6.10
2019-01-19T04:48:14.807Z,5.80
2019-01-19T04:51:19.920Z,5.00
2019-01-19T04:54:25.081Z,6.63
2019-01-19T04:57:30.333Z,10.10
2019-01-19T05:00:35.551Z,7.07
2019-01-19T05:03:40.679Z,6.73
2019-01-19T05:06:45.861Z,6.43
2019-01-19T05:09:50.956Z,7.63
2019-01-19T05:12:56.078Z,6.00
2019-01-19T05:16:01.153Z,5.00
2019-01-19T05:19:06.338Z,5.87
2019-01-19T05:22:11.452Z,8.67
2019-01-19T05:25:16.606Z,7.70
2019-01-19T05:28:21.723Z,5.07
2019-01-19T05:31:26.941Z,7.17
2019-01-19T05:34:32.095Z,5.97
2019-01-19T05:37:37.227Z,8.33
2019-01-19T05:40:42.323Z,6.57
2019-01-19T05:43:47.497Z,7.63
2019-01-19T05:46:52.645Z,7.10
2019-01-19T05:49:57.778Z,5.97
2019-01-19T05:53:02.966Z,7.67
2019-01-19T05:56:08.210Z,6.27
2019-01-19T05:59:13.341Z,8.40
2019-01-19T06:02:19.806Z,9.03
2019-01-19T06:05:24.937Z,6.93
2019-01-19T06:08:30.102Z,5.00
2019-01-19T06:11:35.234Z,8.27
2019-01-19T06:14:40.378Z,8.67
2019-01-19T06:17:45.515Z,5.33
2019-01-19T06:20:50.644Z,5.77
2019-01-19T06:23:55.775Z,6.10
2019-01-19T06:27:00.904Z,9.47
2019-01-19T06:30:08.701Z,7.10
2019-01-19T06:33:13.858Z,10.37
2019-01-19T06:36:18.978Z,8.97
2019-01-19T06:39:24.187Z,6.93
2019-01-19T06:42:29.294Z,8.50
2019-01-19T06:45:34.535Z,9.30
2019-01-19T06:48:39.598Z,9.33
2019-01-19T06:51:44.718Z,7.60
2019-01-19T06:54:49.936Z,9.17
2019-01-19T06:57:55.138Z,8.23
2019-01-19T07:01:00.287Z,10.83
2019-01-19T07:04:05.405Z,7.50
2019-01-19T07:07:10.540Z,6.83
2019-01-19T07:10:18.321Z,8.93
2019-01-19T07:13:23.475Z,9.93
2019-01-19T07:16:28.645Z,16.57
2019-01-19T07:19:33.829Z,11.13
2019-01-19T07:22:38.926Z,10.27
2019-01-19T07:25:45.492Z,13.70
2019-01-19T07:28:50.730Z,10.77
2019-01-19T07:31:56.002Z,14.17
2019-01-19T07:35:01.206Z,12.40
2019-01-19T07:38:06.471Z,12.23
2019-01-19T07:41:11.641Z,8.10
2019-01-19T07:44:16.760Z,10.67
2019-01-19T07:47:22.281Z,11.13
2019-01-19T07:50:27.404Z,12.03
2019-01-19T07:53:32.518Z,17.70
2019-01-19T07:56:37.685Z,12.67
2019-01-19T07:59:42.816Z,10.10
2019-01-19T08:02:47.944Z,11.57
2019-01-19T08:05:53.037Z,10.50
2019-01-19T08:08:59.864Z,38.73
2019-01-19T08:12:05.323Z,18.40
2019-01-19T08:15:13.090Z,26.50
2019-01-19T08:18:18.290Z,18.20
2019-01-19T08:21:23.483Z,14.63
2019-01-19T08:24:28.646Z,11.93
2019-01-19T08:27:33.826Z,14.53
2019-01-19T08:30:39.051Z,15.40
2019-01-19T08:33:44.221Z,9.07
2019-01-19T08:36:49.311Z,11.63
2019-01-19T08:39:54.441Z,14.80
2019-01-19T08:43:04.267Z,16.33
2019-01-19T08:46:09.640Z,17.10
2019-01-19T08:49:14.808Z,16.30
2019-01-19T08:52:19.977Z,15.30
2019-01-19T08:55:25.181Z,15.90
2019-01-19T08:58:31.560Z,14.33
2019-01-19T09:01:36.848Z,12.27
2019-01-19T09:04:41.958Z,13.70
2019-01-19T09:07:47.114Z,13.73
2019-01-19T09:10:52.244Z,15.03
2019-01-19T09:13:57.405Z,13.63
2019-01-19T09:17:02.515Z,18.50
2019-01-19T09:20:09.354Z,20.90
2019-01-19T09:23:39.260Z,20.80
2019-01-19T09:26:44.414Z,14.67
2019-01-19T09:29:49.591Z,18.70
2019-01-19T09:32:55.290Z,18.20
2019-01-19T09:36:00.451Z,20.37
2019-01-19T09:39:11.401Z,19.70
2019-01-19T09:42:16.525Z,10.90
2019-01-19T09:45:21.796Z,6.63
2019-01-19T09:48:26.910Z,8.10
2019-01-19T09:51:32.097Z,7.10
2019-01-19T09:54:37.298Z,7.43
2019-01-19T09:57:42.748Z,20.17
2019-01-19T10:00:47.951Z,9.60
2019-01-19T10:03:53.285Z,9.07
2019-01-19T10:06:58.407Z,13.73
2019-01-19T10:10:03.573Z,8.73
2019-01-19T10:13:08.675Z,7.73
2019-01-19T10:16:13.856Z,8.63
2019-01-19T10:19:19.015Z,5.33
2019-01-19T10:22:24.253Z,7.67
2019-01-19T10:25:29.557Z,7.13
2019-01-19T10:28:34.711Z,8.40
2019-01-19T10:31:39.914Z,7.83
2019-01-19T10:34:45.097Z,8.83
2019-01-19T10:37:56.209Z,8.80
2019-01-19T10:40:57.265Z,8.73
2019-01-19T10:44:02.443Z,7.07
2019-01-19T10:47:07.716Z,6.03
2019-01-19T10:50:14.629Z,8.13
2019-01-19T10:53:20.682Z,7.77
2019-01-19T10:56:25.857Z,6.93
2019-01-19T10:59:31.009Z,8.53
2019-01-19T11:02:36.140Z,7.27
2019-01-19T11:05:41.240Z,12.03
2019-01-19T11:08:46.338Z,7.67
2019-01-19T11:11:51.543Z,7.17
2019-01-19T11:14:56.764Z,6.90
2019-01-19T11:18:01.920Z,7.63
2019-01-19T11:21:07.053Z,8.50
2019-01-19T11:24:12.197Z,11.70
2019-01-19T11:27:17.349Z,7.83
2019-01-19T11:30:24.413Z,7.97
2019-01-19T11:33:29.524Z,8.93
2019-01-19T11:36:34.665Z,6.23
2019-01-19T11:39:39.754Z,9.13
2019-01-19T11:42:44.894Z,7.00
2019-01-19T11:45:50.027Z,5.37
2019-01-19T11:48:55.249Z,7.17
2019-01-19T11:52:00.371Z,7.87
2019-01-19T11:55:07.682Z,7.70
2019-01-19T11:58:14.849Z,8.60
2019-01-19T12:01:20.454Z,6.23
2019-01-19T12:04:25.658Z,7.53
2019-01-19T12:07:30.748Z,7.40
2019-01-19T12:10:35.959Z,9.70
2019-01-19T12:13:41.110Z,7.90
2019-01-19T12:16:46.241Z,7.27
2019-01-19T12:19:51.331Z,8.13
2019-01-19T12:22:56.519Z,6.07
2019-01-19T12:26:01.676Z,6.03
2019-01-19T12:29:06.788Z,7.50
2019-01-19T12:32:14.460Z,6.27
2019-01-19T12:35:18.793Z,8.33
2019-01-19T12:38:26.993Z,7.63
2019-01-19T12:41:31.769Z,8.67
2019-01-19T12:44:36.917Z,5.67
2019-01-19T12:47:42.046Z,4.70
2019-01-19T12:50:47.264Z,6.40
2019-01-19T12:53:52.410Z,5.60
2019-01-19T12:56:57.643Z,5.83
2019-01-19T13:00:02.770Z,10.53
2019-01-19T13:03:08.581Z,4.43
2019-01-19T13:06:34.405Z,5.13
2019-01-19T13:09:43.285Z,5.13
2019-01-19T13:12:58.084Z,5.13
2019-01-19T13:16:35.759Z,3.23
2019-01-19T13:20:05.794Z,3.00
2019-01-19T13:23:47.860Z,3.90
2019-01-19T13:27:11.400Z,2.53
2019-01-19T13:30:29.216Z,4.00
2019-01-19T13:33:56.794Z,3.10
2019-01-19T13:37:17.411Z,3.67
2019-01-19T13:40:59.424Z,3.57
2019-01-19T13:44:34.986Z,2.60
2019-01-19T13:48:16.059Z,2.37
2019-01-19T13:51:35.459Z,3.37
2019-01-19T13:55:50.545Z,3.23
2019-01-19T13:59:12.056Z,6.23
2019-01-19T14:02:40.265Z,4.87
2019-01-19T14:06:17.975Z,13.40
2019-01-19T14:09:55.201Z,4.80
2019-01-19T14:13:27.909Z,4.20
2019-01-19T14:17:19.979Z,3.97
2019-01-19T14:21:24.724Z,4.80
2019-01-19T14:25:09.538Z,3.93
2019-01-19T14:29:05.432Z,6.27
2019-01-19T14:32:29.266Z,3.57
2019-01-19T14:36:24.537Z,4.20
2019-01-19T14:40:00.193Z,6.30
2019-01-19T14:43:52.328Z,4.57
2019-01-19T14:47:16.067Z,4.42
2019-01-19T14:51:01.105Z,6.50
2019-01-19T14:54:43.045Z,7.83
2019-01-19T14:58:26.337Z,13.93
2019-01-19T15:02:03.825Z,9.27
2019-01-19T15:05:28.610Z,12.10
2019-01-19T15:09:14.723Z,6.83
2019-01-19T15:13:12.009Z,8.53
2019-01-19T15:16:53.763Z,3.77
2019-01-19T15:20:27.072Z,4.80
2019-01-19T15:23:42.241Z,5.03
2019-01-19T15:27:23.425Z,6.40
2019-01-19T15:30:47.923Z,9.13
2019-01-19T15:34:28.920Z,8.30
2019-01-19T15:37:44.865Z,7.43
2019-01-19T15:41:37.170Z,18.10
2019-01-19T15:45:24.729Z,14.43
2019-01-19T15:49:23.052Z,11.60
2019-01-19T15:52:55.755Z,24.60
2019-01-19T15:56:43.752Z,19.07
2019-01-19T16:00:37.538Z,16.83
2019-01-19T16:04:20.842Z,22.13
2019-01-19T16:08:03.142Z,24.13
2019-01-19T16:11:47.629Z,41.60
2019-01-19T16:15:15.864Z,24.70
2019-01-19T16:18:52.379Z,28.33
2019-01-19T16:22:27.721Z,22.60
2019-01-19T16:26:12.750Z,17.50
2019-01-19T16:29:52.523Z,17.40
2019-01-19T16:33:31.953Z,20.27
2019-01-19T16:37:03.415Z,22.17
2019-01-19T16:40:40.927Z,17.43
2019-01-19T16:44:31.948Z,14.77
2019-01-19T16:48:19.084Z,32.50
2019-01-19T16:52:20.057Z,31.53
2019-01-19T16:55:41.649Z,17.17
2019-01-19T16:59:04.495Z,10.47
2019-01-19T17:02:49.274Z,10.17
2019-01-19T17:06:31.086Z,21.97
2019-01-19T17:10:01.083Z,22.87
2019-01-19T17:13:45.504Z,32.33
2019-01-19T17:17:37.455Z,17.90
2019-01-19T17:21:22.521Z,8.07
2019-01-19T17:25:20.392Z,6.63
2019-01-19T17:28:59.491Z,16.10
2019-01-19T17:32:33.733Z,15.00
2019-01-19T17:36:08.142Z,14.53
2019-01-19T17:39:29.654Z,11.60
2019-01-19T17:43:16.606Z,13.40
2019-01-19T17:47:11.378Z,16.97
2019-01-19T17:51:09.499Z,15.83
2019-01-19T17:54:51.388Z,22.53
2019-01-19T17:58:32.654Z,12.93
2019-01-19T18:02:31.148Z,20.97
2019-01-19T18:06:07.920Z,14.60
2019-01-19T18:09:47.611Z,9.23
2019-01-19T18:13:34.078Z,13.43
2019-01-19T18:17:05.699Z,10.10
2019-01-19T18:20:25.795Z,10.23
2019-01-19T18:24:13.878Z,7.60
2019-01-19T18:28:01.567Z,11.20
2019-01-19T18:31:47.111Z,10.93
2019-01-19T18:35:20.893Z,11.97
2019-01-19T18:39:00.597Z,18.70
2019-01-19T18:42:30.687Z,15.77
2019-01-19T18:46:09.694Z,9.33
2019-01-19T18:49:46.493Z,10.53
2019-01-19T18:53:15.519Z,7.57
2019-01-19T18:57:03.247Z,5.10
2019-01-19T19:00:37.877Z,5.27
2019-01-19T19:04:54.384Z,16.77
2019-01-19T19:08:35.786Z,17.50
2019-01-19T19:12:22.148Z,21.43
2019-01-19T19:16:01.435Z,13.03
2019-01-19T19:19:18.898Z,21.33
2019-01-19T19:22:51.957Z,25.87
2019-01-19T19:26:43.127Z,22.63
2019-01-19T19:30:17.768Z,28.20
2019-01-19T19:33:54.573Z,27.70
2019-01-19T19:37:35.538Z,24.93
2019-01-19T19:41:25.935Z,33.37
2019-01-19T19:44:53.615Z,32.30
2019-01-19T19:48:42.999Z,32.37
2019-01-19T19:51:58.442Z,28.10
2019-01-19T19:55:01.984Z,26.53
2019-01-19T19:58:07.332Z,34.03
2019-01-19T20:01:12.611Z,44.23
2019-01-19T20:04:18.047Z,42.50
2019-01-19T20:07:23.272Z,44.80
2019-01-19T20:10:28.519Z,55.00
2019-01-19T20:13:33.728Z,43.27
2019-01-19T20:16:38.854Z,48.93
2019-01-19T20:19:44.016Z,42.17
2019-01-19T20:22:49.252Z,51.97
2019-01-19T20:25:54.464Z,75.67
2019-01-19T20:28:59.590Z,69.30
2019-01-19T20:32:04.761Z,76.97
2019-01-19T20:35:09.911Z,82.47
2019-01-19T20:38:15.157Z,74.00
2019-01-19T20:41:20.308Z,75.63
2019-01-19T20:44:25.547Z,72.60
2019-01-19T20:47:30.753Z,59.17
2019-01-19T20:50:35.920Z,66.10
2019-01-19T20:53:41.093Z,55.17
2019-01-19T20:56:46.329Z,49.60
2019-01-19T20:59:51.548Z,52.40
2019-01-19T21:02:56.747Z,59.47
2019-01-19T21:06:02.039Z,67.13
2019-01-19T21:09:12.373Z,59.40
2019-01-19T21:12:17.584Z,46.20
2019-01-19T21:15:22.811Z,47.67
2019-01-19T21:18:28.012Z,42.50
2019-01-19T21:21:33.173Z,34.97
2019-01-19T21:24:38.395Z,43.87
2019-01-19T21:27:43.630Z,41.07
2019-01-19T21:30:48.854Z,50.30
2019-01-19T21:33:54.044Z,43.33
2019-01-19T21:36:59.236Z,31.13
2019-01-19T21:40:06.010Z,38.57
2019-01-19T21:43:11.346Z,35.27
2019-01-19T21:46:16.488Z,48.70
2019-01-19T21:49:21.631Z,48.90
2019-01-19T21:52:26.819Z,40.80
2019-01-19T21:55:31.923Z,47.60
2019-01-19T21:58:37.143Z,44.53
2019-01-19T22:01:42.219Z,53.93
2019-01-19T22:04:47.412Z,42.47
2019-01-19T22:07:52.573Z,26.77
2019-01-19T22:10:57.730Z,38.87
2019-01-19T22:14:02.897Z,22.40
2019-01-19T22:17:08.090Z,52.67
2019-01-19T22:20:14.484Z,18.87
2019-01-19T22:23:19.609Z,13.53
2019-01-19T22:26:25.119Z,12.80
2019-01-19T22:29:30.255Z,13.73
2019-01-19T22:32:35.439Z,17.33
2019-01-19T22:35:40.625Z,13.50
2019-01-19T22:38:45.760Z,22.33
2019-01-19T22:41:53.935Z,18.03
2019-01-19T22:44:59.071Z,28.53
2019-01-19T22:48:04.555Z,28.17
2019-01-19T22:51:11.408Z,54.33
2019-01-19T22:54:16.786Z,52.27
2019-01-19T22:57:21.932Z,51.53
2019-01-19T23:01:07.673Z,42.53
2019-01-19T23:04:12.869Z,47.20
2019-01-19T23:07:18.005Z,46.83
2019-01-19T23:10:24.203Z,39.00
2019-01-19T23:13:29.414Z,35.73
2019-01-19T23:16:34.527Z,33.67
2019-01-19T23:19:39.689Z,34.93
2019-01-19T23:22:45.134Z,32.77
2019-01-19T23:25:50.293Z,46.07
2019-01-19T23:28:55.415Z,31.43
2019-01-19T23:32:00.535Z,31.60
2019-01-19T23:35:06.729Z,28.87
2019-01-19T23:38:11.892Z,35.57
2019-01-19T23:41:17.098Z,33.07
2019-01-19T23:44:22.218Z,33.00
2019-01-19T23:47:27.364Z,30.60
2019-01-19T23:50:32.507Z,31.73
2019-01-19T23:53:37.731Z,29.23
2019-01-19T23:56:42.847Z,23.50
2019-01-19T23:59:47.965Z,23.57
